createdAt,value
2023-05-14T00:00:08.566Z,499.86
2023-05-14T00:00:19.568Z,499.87
2023-05-14T00:00:30.565Z,499.91
2023-05-14T00:00:41.568Z,499.94
2023-05-14T00:00:52.550Z,499.92
2023-05-14T00:01:03.646Z,499.98
2023-05-14T00:01:15.615Z,499.97
2023-05-14T00:01:26.608Z,499.98
2023-05-14T00:01:37.591Z,500.00
2023-05-14T00:01:49.593Z,500.00
2023-05-14T00:02:00.671Z,499.96
2023-05-14T00:02:11.620Z,499.94
2023-05-14T00:02:23.627Z,499.95
2023-05-14T00:02:34.618Z,499.93
2023-05-14T00:02:45.622Z,499.90
2023-05-14T00:02:57.638Z,499.87
2023-05-14T00:03:08.910Z,499.83
2023-05-14T00:03:20.678Z,499.81
2023-05-14T00:03:32.677Z,499.83
2023-05-14T00:03:43.710Z,499.86
2023-05-14T00:03:54.715Z,499.84
2023-05-14T00:04:06.774Z,499.86
2023-05-14T00:04:18.650Z,499.88
2023-05-14T00:04:29.639Z,499.88
2023-05-14T00:04:40.592Z,499.87
2023-05-14T00:04:51.610Z,499.92
2023-05-14T00:05:02.661Z,499.94
2023-05-14T00:05:14.625Z,499.94
2023-05-14T00:05:26.602Z,499.92
2023-05-14T00:05:37.594Z,499.89
2023-05-14T00:05:49.605Z,499.90
2023-05-14T00:06:00.609Z,499.94
2023-05-14T00:06:12.599Z,499.93
2023-05-14T00:06:24.601Z,499.92
2023-05-14T00:06:35.594Z,499.94
2023-05-14T00:06:47.578Z,499.94
2023-05-14T00:06:58.585Z,499.94
2023-05-14T00:07:09.570Z,499.93
2023-05-14T00:07:20.593Z,499.92
2023-05-14T00:07:31.576Z,499.92
2023-05-14T00:07:42.582Z,499.92
2023-05-14T00:07:53.605Z,499.92
2023-05-14T00:08:05.574Z,499.86
2023-05-14T00:08:16.561Z,499.86
2023-05-14T00:08:27.565Z,499.93
2023-05-14T00:08:38.549Z,500.00
2023-05-14T00:08:49.538Z,500.03
2023-05-14T00:09:00.568Z,500.08
2023-05-14T00:09:11.562Z,500.11
2023-05-14T00:09:22.566Z,500.13
2023-05-14T00:09:33.558Z,500.15
2023-05-14T00:09:44.565Z,500.16
2023-05-14T00:09:55.557Z,500.20
2023-05-14T00:10:06.559Z,500.21
2023-05-14T00:10:17.641Z,500.20
2023-05-14T00:10:29.593Z,500.22
2023-05-14T00:10:41.582Z,500.18
2023-05-14T00:10:52.564Z,500.19
2023-05-14T00:11:03.575Z,500.17
2023-05-14T00:11:14.595Z,500.17
2023-05-14T00:11:25.592Z,500.14
2023-05-14T00:11:36.586Z,500.13
2023-05-14T00:11:47.587Z,500.15
2023-05-14T00:11:58.608Z,500.21
2023-05-14T00:12:09.607Z,500.24
2023-05-14T00:12:21.580Z,500.29
2023-05-14T00:12:32.597Z,500.32
2023-05-14T00:12:43.585Z,500.31
2023-05-14T00:12:54.598Z,500.32
2023-05-14T00:13:05.614Z,500.34
2023-05-14T00:13:17.586Z,500.42
2023-05-14T00:13:28.598Z,500.41
2023-05-14T00:13:39.603Z,500.43
2023-05-14T00:13:50.596Z,500.44
2023-05-14T00:14:01.609Z,500.45
2023-05-14T00:14:13.608Z,500.41
2023-05-14T00:14:24.608Z,500.44
2023-05-14T00:14:35.605Z,500.46
2023-05-14T00:14:47.575Z,500.46
2023-05-14T00:14:58.565Z,500.48
2023-05-14T00:15:09.577Z,500.48
2023-05-14T00:15:20.572Z,500.51
2023-05-14T00:15:34.080Z,500.47
2023-05-14T00:15:43.671Z,500.43
2023-05-14T00:15:55.632Z,500.42
2023-05-14T00:16:07.721Z,500.40
2023-05-14T00:16:19.654Z,500.44
2023-05-14T00:16:30.612Z,500.46
2023-05-14T00:16:41.590Z,500.49
2023-05-14T00:16:52.579Z,500.53
2023-05-14T00:17:03.560Z,500.52
2023-05-14T00:17:14.568Z,500.56
2023-05-14T00:17:25.590Z,500.52
2023-05-14T00:17:36.645Z,500.52
2023-05-14T00:17:47.596Z,500.51
2023-05-14T00:17:58.645Z,500.53
2023-05-14T00:18:09.577Z,500.52
2023-05-14T00:18:20.640Z,500.52
2023-05-14T00:18:32.667Z,500.52
2023-05-14T00:18:43.589Z,500.52
2023-05-14T00:18:55.595Z,500.54
2023-05-14T00:19:06.689Z,500.48
2023-05-14T00:19:18.066Z,500.46
2023-05-14T00:19:28.610Z,500.49
2023-05-14T00:19:40.584Z,500.47
2023-05-14T00:19:52.598Z,500.49
2023-05-14T00:20:03.608Z,500.50
2023-05-14T00:20:14.623Z,500.50
2023-05-14T00:20:26.597Z,500.52
2023-05-14T00:20:38.601Z,500.50
2023-05-14T00:20:49.599Z,500.50
2023-05-14T00:21:01.594Z,500.49
2023-05-14T00:21:12.585Z,500.53
2023-05-14T00:21:23.593Z,500.53
2023-05-14T00:21:34.588Z,500.58
2023-05-14T00:21:45.604Z,500.56
2023-05-14T00:21:56.598Z,500.55
2023-05-14T00:22:08.594Z,500.54
2023-05-14T00:22:19.591Z,500.53
2023-05-14T00:22:30.588Z,500.53
2023-05-14T00:22:41.577Z,500.56
2023-05-14T00:22:52.571Z,500.58
2023-05-14T00:23:04.579Z,500.64
2023-05-14T00:23:15.579Z,500.65
2023-05-14T00:23:26.626Z,500.68
2023-05-14T00:23:38.572Z,500.72
2023-05-14T00:23:49.570Z,500.74
2023-05-14T00:24:00.569Z,500.77
2023-05-14T00:24:11.557Z,500.79
2023-05-14T00:24:22.597Z,500.80
2023-05-14T00:24:33.593Z,500.83
2023-05-14T00:24:44.588Z,500.89
2023-05-14T00:24:55.594Z,500.90
2023-05-14T00:25:06.600Z,500.92
2023-05-14T00:25:18.578Z,500.96
2023-05-14T00:25:29.574Z,500.95
2023-05-14T00:25:40.576Z,500.95
2023-05-14T00:25:51.566Z,500.95
2023-05-14T00:26:02.562Z,500.96
2023-05-14T00:26:13.595Z,500.95
2023-05-14T00:26:24.636Z,500.98
2023-05-14T00:26:36.613Z,501.00
2023-05-14T00:26:47.609Z,501.00
2023-05-14T00:26:58.606Z,501.03
2023-05-14T00:27:09.620Z,501.05
2023-05-14T00:27:21.594Z,501.03
2023-05-14T00:27:32.595Z,501.03
2023-05-14T00:27:43.590Z,501.04
2023-05-14T00:27:54.594Z,501.04
2023-05-14T00:28:05.583Z,501.07
2023-05-14T00:28:16.583Z,501.08
2023-05-14T00:28:27.580Z,501.09
2023-05-14T00:28:39.588Z,501.09
2023-05-14T00:28:50.581Z,501.11
2023-05-14T00:29:01.579Z,501.11
2023-05-14T00:29:12.572Z,501.14
2023-05-14T00:29:23.572Z,501.17
2023-05-14T00:29:34.569Z,501.18
2023-05-14T00:29:45.567Z,501.23
2023-05-14T00:29:56.575Z,501.29
2023-05-14T00:30:07.561Z,501.35
2023-05-14T00:30:18.575Z,501.38
2023-05-14T00:30:29.568Z,501.31
2023-05-14T00:30:40.555Z,501.25
2023-05-14T00:30:51.553Z,501.17
2023-05-14T00:31:02.580Z,501.17
2023-05-14T00:31:13.601Z,501.22
2023-05-14T00:31:25.637Z,501.23
2023-05-14T00:31:36.615Z,501.28
2023-05-14T00:31:47.634Z,501.28
2023-05-14T00:31:59.610Z,501.30
2023-05-14T00:32:10.602Z,501.28
2023-05-14T00:32:22.691Z,501.31
2023-05-14T00:32:33.609Z,501.33
2023-05-14T00:32:45.640Z,501.36
2023-05-14T00:32:57.684Z,501.41
2023-05-14T00:33:08.653Z,501.45
2023-05-14T00:33:19.595Z,501.45
2023-05-14T00:33:30.595Z,501.42
2023-05-14T00:33:41.585Z,501.44
2023-05-14T00:33:52.589Z,501.49
2023-05-14T00:34:03.591Z,501.52
2023-05-14T00:34:14.605Z,501.51
2023-05-14T00:34:26.586Z,501.51
2023-05-14T00:34:37.604Z,501.50
2023-05-14T00:34:48.603Z,501.51
2023-05-14T00:35:00.596Z,501.50
2023-05-14T00:35:11.598Z,501.49
2023-05-14T00:35:22.598Z,501.51
2023-05-14T00:35:33.606Z,501.57
2023-05-14T00:35:44.619Z,501.61
2023-05-14T00:35:55.609Z,501.69
2023-05-14T00:36:06.608Z,501.69
2023-05-14T00:36:17.603Z,501.70
2023-05-14T00:36:29.617Z,501.76
2023-05-14T00:36:41.590Z,501.79
2023-05-14T00:36:52.574Z,501.78
2023-05-14T00:37:03.577Z,501.77
2023-05-14T00:37:14.574Z,501.80
2023-05-14T00:37:25.583Z,501.81
2023-05-14T00:37:36.568Z,501.82
2023-05-14T00:37:47.562Z,501.83
2023-05-14T00:37:58.596Z,501.83
2023-05-14T00:38:10.578Z,501.83
2023-05-14T00:38:21.591Z,501.80
2023-05-14T00:38:32.601Z,501.86
2023-05-14T00:38:43.602Z,501.84
2023-05-14T00:38:54.589Z,501.84
2023-05-14T00:39:05.580Z,501.86
2023-05-14T00:39:16.605Z,501.91
2023-05-14T00:39:27.609Z,501.97
2023-05-14T00:39:38.602Z,501.99
2023-05-14T00:39:49.610Z,502.02
2023-05-14T00:40:01.579Z,502.04
2023-05-14T00:40:12.573Z,502.02
2023-05-14T00:40:23.900Z,502.04
2023-05-14T00:40:34.587Z,502.07
2023-05-14T00:40:45.587Z,502.08
2023-05-14T00:40:57.569Z,502.10
2023-05-14T00:41:08.564Z,502.13
2023-05-14T00:41:19.561Z,502.17
2023-05-14T00:41:30.565Z,502.18
2023-05-14T00:41:41.570Z,502.21
2023-05-14T00:41:52.562Z,502.24
2023-05-14T00:42:03.557Z,502.26
2023-05-14T00:42:14.645Z,502.31
2023-05-14T00:42:26.616Z,502.31
2023-05-14T00:42:37.597Z,502.32
2023-05-14T00:42:48.599Z,502.31
2023-05-14T00:43:00.598Z,502.30
2023-05-14T00:43:11.595Z,502.28
2023-05-14T00:43:23.583Z,502.30
2023-05-14T00:43:34.590Z,502.33
2023-05-14T00:43:45.589Z,502.37
2023-05-14T00:43:56.562Z,502.38
2023-05-14T00:44:07.556Z,502.38
2023-05-14T00:44:18.650Z,502.38
2023-05-14T00:44:30.595Z,502.37
2023-05-14T00:44:42.600Z,502.32
2023-05-14T00:44:54.619Z,502.31
2023-05-14T00:45:06.596Z,502.31
2023-05-14T00:45:17.594Z,502.32
2023-05-14T00:45:29.588Z,502.32
2023-05-14T00:45:40.576Z,502.29
2023-05-14T00:45:51.576Z,502.26
2023-05-14T00:46:02.587Z,502.25
2023-05-14T00:46:13.585Z,502.27
2023-05-14T00:46:24.615Z,502.27
2023-05-14T00:46:36.698Z,502.28
2023-05-14T00:46:48.650Z,502.34
2023-05-14T00:46:59.674Z,502.31
2023-05-14T00:47:11.611Z,502.31
2023-05-14T00:47:23.622Z,502.28
2023-05-14T00:47:35.596Z,502.29
2023-05-14T00:47:47.636Z,502.30
2023-05-14T00:47:59.683Z,502.28
2023-05-14T00:48:11.577Z,502.31
2023-05-14T00:48:22.556Z,502.33
2023-05-14T00:48:33.558Z,502.37
2023-05-14T00:48:44.649Z,502.39
2023-05-14T00:48:56.617Z,502.42
2023-05-14T00:49:08.584Z,502.42
2023-05-14T00:49:19.570Z,502.45
2023-05-14T00:49:30.588Z,502.49
2023-05-14T00:49:41.587Z,502.52
2023-05-14T00:49:52.588Z,502.58
2023-05-14T00:50:04.591Z,502.58
2023-05-14T00:50:15.586Z,502.57
2023-05-14T00:50:26.764Z,502.61
2023-05-14T00:50:37.602Z,502.60
2023-05-14T00:50:48.595Z,502.58
2023-05-14T00:51:00.596Z,502.61
2023-05-14T00:51:12.577Z,502.62
2023-05-14T00:51:23.574Z,502.59
2023-05-14T00:51:34.575Z,502.61
2023-05-14T00:51:46.575Z,502.61
2023-05-14T00:51:57.556Z,502.61
2023-05-14T00:52:08.547Z,502.57
2023-05-14T00:52:19.628Z,502.60
2023-05-14T00:52:31.594Z,502.64
2023-05-14T00:52:42.594Z,502.61
2023-05-14T00:52:53.599Z,502.61
2023-05-14T00:53:05.592Z,502.61
2023-05-14T00:53:17.595Z,502.57
2023-05-14T00:53:28.602Z,502.59
2023-05-14T00:53:39.602Z,502.56
2023-05-14T00:53:50.644Z,502.59
2023-05-14T00:54:01.559Z,502.56
2023-05-14T00:54:12.563Z,502.56
2023-05-14T00:54:23.553Z,502.55
2023-05-14T00:54:34.558Z,502.55
2023-05-14T00:54:45.573Z,502.55
2023-05-14T00:54:56.549Z,502.51
2023-05-14T00:55:07.628Z,502.51
2023-05-14T00:55:19.609Z,502.46
2023-05-14T00:55:30.597Z,502.46
2023-05-14T00:55:41.581Z,502.41
2023-05-14T00:55:52.584Z,502.39
2023-05-14T00:56:03.589Z,502.38
2023-05-14T00:56:14.600Z,502.37
2023-05-14T00:56:25.589Z,502.39
2023-05-14T00:56:36.586Z,502.38
2023-05-14T00:56:47.585Z,502.34
2023-05-14T00:56:58.586Z,502.32
2023-05-14T00:57:09.588Z,502.29
2023-05-14T00:57:20.581Z,502.29
2023-05-14T00:57:31.586Z,502.30
2023-05-14T00:57:42.570Z,502.31
2023-05-14T00:57:53.615Z,502.30
2023-05-14T00:58:05.576Z,502.30
2023-05-14T00:58:16.581Z,502.28
2023-05-14T00:58:27.571Z,502.28
2023-05-14T00:58:38.564Z,502.29
2023-05-14T00:58:49.565Z,502.28
2023-05-14T00:59:00.558Z,502.24
2023-05-14T00:59:11.637Z,502.24
2023-05-14T00:59:23.609Z,502.15
2023-05-14T00:59:35.602Z,502.14
2023-05-14T00:59:47.605Z,502.13
2023-05-14T00:59:59.602Z,502.16
2023-05-14T01:00:11.604Z,502.17
2023-05-14T01:00:22.790Z,502.19
2023-05-14T01:00:34.636Z,502.21
2023-05-14T01:00:46.620Z,502.21
2023-05-14T01:00:58.653Z,502.18
2023-05-14T01:01:09.630Z,502.22
2023-05-14T01:01:20.645Z,502.24
2023-05-14T01:01:31.708Z,502.21
2023-05-14T01:01:43.657Z,502.21
2023-05-14T01:01:55.598Z,502.22
2023-05-14T01:02:07.586Z,502.23
2023-05-14T01:02:18.583Z,502.24
2023-05-14T01:02:29.698Z,502.25
2023-05-14T01:02:41.713Z,502.28
2023-05-14T01:02:53.702Z,502.34
2023-05-14T01:03:04.677Z,502.39
2023-05-14T01:03:15.655Z,502.36
2023-05-14T01:03:27.678Z,502.41
2023-05-14T01:03:39.819Z,502.38
2023-05-14T01:03:51.737Z,502.40
2023-05-14T01:04:03.692Z,502.40
2023-05-14T01:04:15.628Z,502.39
2023-05-14T01:04:27.600Z,502.43
2023-05-14T01:04:38.599Z,502.40
2023-05-14T01:04:50.626Z,502.40
2023-05-14T01:05:01.579Z,502.40
2023-05-14T01:05:12.573Z,502.41
2023-05-14T01:05:23.558Z,502.43
2023-05-14T01:05:34.565Z,502.53
2023-05-14T01:05:45.592Z,502.53
2023-05-14T01:05:56.584Z,502.52
2023-05-14T01:06:07.597Z,502.50
2023-05-14T01:06:18.579Z,502.52
2023-05-14T01:06:29.581Z,502.51
2023-05-14T01:06:40.576Z,502.54
2023-05-14T01:06:51.578Z,502.55
2023-05-14T01:07:02.576Z,502.55
2023-05-14T01:07:13.569Z,502.55
2023-05-14T01:07:24.600Z,502.58
2023-05-14T01:07:35.610Z,502.62
2023-05-14T01:07:47.603Z,502.66
2023-05-14T01:07:58.597Z,502.62
2023-05-14T01:08:10.608Z,502.62
2023-05-14T01:08:21.604Z,502.64
2023-05-14T01:08:33.608Z,502.69
2023-05-14T01:08:45.603Z,502.72
2023-05-14T01:08:56.602Z,502.77
2023-05-14T01:09:07.609Z,502.79
2023-05-14T01:09:18.594Z,502.80
2023-05-14T01:09:29.594Z,502.78
2023-05-14T01:09:40.598Z,502.74
2023-05-14T01:09:51.579Z,502.73
2023-05-14T01:10:02.568Z,502.73
2023-05-14T01:10:13.566Z,502.71
2023-05-14T01:10:24.987Z,502.72
2023-05-14T01:10:35.592Z,502.70
2023-05-14T01:10:46.580Z,502.69
2023-05-14T01:10:57.594Z,502.70
2023-05-14T01:11:08.593Z,502.70
2023-05-14T01:11:19.595Z,502.71
2023-05-14T01:11:31.587Z,502.73
2023-05-14T01:11:42.571Z,502.76
2023-05-14T01:11:53.571Z,502.80
2023-05-14T01:12:04.571Z,502.84
2023-05-14T01:12:15.554Z,502.85
2023-05-14T01:12:26.549Z,502.83
2023-05-14T01:12:37.640Z,502.83
2023-05-14T01:12:49.616Z,502.78
2023-05-14T01:13:01.608Z,502.75
2023-05-14T01:13:12.599Z,502.74
2023-05-14T01:13:23.601Z,502.73
2023-05-14T01:13:35.577Z,502.77
2023-05-14T01:13:46.607Z,502.76
2023-05-14T01:13:57.596Z,502.76
2023-05-14T01:14:08.589Z,502.69
2023-05-14T01:14:19.589Z,502.69
2023-05-14T01:14:30.586Z,502.68
2023-05-14T01:14:41.585Z,502.67
2023-05-14T01:14:53.592Z,502.67
2023-05-14T01:15:04.625Z,502.70
2023-05-14T01:15:15.606Z,502.72
2023-05-14T01:15:27.608Z,502.74
2023-05-14T01:15:39.576Z,502.73
2023-05-14T01:15:50.568Z,502.72
2023-05-14T01:16:01.598Z,502.71
2023-05-14T01:16:12.660Z,502.68
2023-05-14T01:16:24.646Z,502.67
2023-05-14T01:16:36.641Z,502.66
2023-05-14T01:16:48.637Z,502.64
2023-05-14T01:16:59.626Z,502.63
2023-05-14T01:17:10.556Z,502.64
2023-05-14T01:17:21.571Z,502.67
2023-05-14T01:17:32.578Z,502.73
2023-05-14T01:17:43.653Z,502.72
2023-05-14T01:17:55.755Z,502.75
2023-05-14T01:18:07.588Z,502.71
2023-05-14T01:18:18.619Z,502.64
2023-05-14T01:18:29.685Z,502.57
2023-05-14T01:18:41.621Z,502.57
2023-05-14T01:18:52.698Z,502.55
2023-05-14T01:19:04.616Z,502.54
2023-05-14T01:19:16.672Z,502.55
2023-05-14T01:19:28.578Z,502.57
2023-05-14T01:19:39.589Z,502.53
2023-05-14T01:19:50.573Z,502.52
2023-05-14T01:20:01.591Z,502.47
2023-05-14T01:20:12.595Z,502.46
2023-05-14T01:20:23.828Z,502.46
2023-05-14T01:20:34.578Z,502.45
2023-05-14T01:20:45.574Z,502.44
2023-05-14T01:20:56.596Z,502.46
2023-05-14T01:21:07.590Z,502.47
2023-05-14T01:21:18.603Z,502.49
2023-05-14T01:21:30.618Z,502.50
2023-05-14T01:21:42.598Z,502.49
2023-05-14T01:21:53.593Z,502.49
2023-05-14T01:22:04.583Z,502.48
2023-05-14T01:22:15.579Z,502.49
2023-05-14T01:22:26.594Z,502.48
2023-05-14T01:22:37.587Z,502.52
2023-05-14T01:22:48.609Z,502.53
2023-05-14T01:22:59.595Z,502.56
2023-05-14T01:23:10.576Z,502.60
2023-05-14T01:23:21.564Z,502.62
2023-05-14T01:23:32.558Z,502.65
2023-05-14T01:23:43.570Z,502.63
2023-05-14T01:23:54.552Z,502.66
2023-05-14T01:24:05.588Z,502.67
2023-05-14T01:24:16.588Z,502.65
2023-05-14T01:24:27.576Z,502.68
2023-05-14T01:24:38.588Z,502.69
2023-05-14T01:24:49.607Z,502.68
2023-05-14T01:25:00.628Z,502.67
2023-05-14T01:25:12.597Z,502.68
2023-05-14T01:25:23.616Z,502.71
2023-05-14T01:25:34.613Z,502.74
2023-05-14T01:25:45.611Z,502.73
2023-05-14T01:25:57.603Z,502.75
2023-05-14T01:26:08.610Z,502.77
2023-05-14T01:26:19.614Z,502.77
2023-05-14T01:26:30.604Z,502.76
2023-05-14T01:26:41.608Z,502.79
2023-05-14T01:26:53.600Z,502.81
2023-05-14T01:27:05.605Z,502.82
2023-05-14T01:27:17.588Z,502.84
2023-05-14T01:27:28.576Z,502.86
2023-05-14T01:27:39.560Z,502.87
2023-05-14T01:27:50.548Z,502.90
2023-05-14T01:28:01.554Z,502.93
2023-05-14T01:28:12.647Z,502.97
2023-05-14T01:28:24.610Z,503.00
2023-05-14T01:28:35.608Z,503.03
2023-05-14T01:28:47.613Z,503.04
2023-05-14T01:28:59.580Z,503.06
2023-05-14T01:29:10.590Z,503.06
2023-05-14T01:29:21.619Z,503.08
2023-05-14T01:29:32.608Z,503.10
2023-05-14T01:29:44.582Z,503.12
2023-05-14T01:29:55.583Z,503.15
2023-05-14T01:30:06.582Z,503.13
2023-05-14T01:30:17.593Z,503.16
2023-05-14T01:30:28.596Z,503.16
2023-05-14T01:30:39.605Z,503.14
2023-05-14T01:30:50.644Z,503.14
2023-05-14T01:31:02.604Z,503.14
2023-05-14T01:31:13.591Z,503.14
2023-05-14T01:31:24.599Z,503.15
2023-05-14T01:31:35.602Z,503.14
2023-05-14T01:31:47.629Z,503.20
2023-05-14T01:31:58.622Z,503.24
2023-05-14T01:32:09.729Z,503.24
2023-05-14T01:32:20.624Z,503.22
2023-05-14T01:32:32.659Z,503.24
2023-05-14T01:32:43.656Z,503.24
2023-05-14T01:32:55.716Z,503.23
2023-05-14T01:33:07.704Z,503.20
2023-05-14T01:33:18.614Z,503.22
2023-05-14T01:33:30.597Z,503.19
2023-05-14T01:33:41.617Z,503.18
2023-05-14T01:33:52.597Z,503.15
2023-05-14T01:34:03.588Z,503.15
2023-05-14T01:34:14.593Z,503.14
2023-05-14T01:34:25.593Z,503.16
2023-05-14T01:34:36.584Z,503.15
2023-05-14T01:34:47.556Z,503.12
2023-05-14T01:34:58.616Z,503.11
2023-05-14T01:35:10.593Z,503.11
2023-05-14T01:35:21.584Z,503.10
2023-05-14T01:35:32.573Z,503.10
2023-05-14T01:35:43.559Z,503.11
2023-05-14T01:35:54.586Z,503.06
2023-05-14T01:36:05.585Z,503.05
2023-05-14T01:36:16.601Z,503.04
2023-05-14T01:36:27.604Z,503.04
2023-05-14T01:36:38.583Z,503.03
2023-05-14T01:36:49.582Z,503.04
2023-05-14T01:37:03.669Z,503.04
2023-05-14T01:37:11.555Z,503.04
2023-05-14T01:37:22.574Z,503.11
2023-05-14T01:37:33.562Z,503.09
2023-05-14T01:37:44.566Z,503.12
2023-05-14T01:37:55.566Z,503.12
2023-05-14T01:38:06.636Z,503.11
2023-05-14T01:38:18.585Z,503.12
2023-05-14T01:38:29.579Z,503.10
2023-05-14T01:38:40.580Z,503.12
2023-05-14T01:38:51.580Z,503.12
2023-05-14T01:39:02.575Z,503.11
2023-05-14T01:39:13.560Z,503.11
2023-05-14T01:39:24.575Z,503.16
2023-05-14T01:39:35.572Z,503.16
2023-05-14T01:39:46.582Z,503.23
2023-05-14T01:39:57.595Z,503.22
2023-05-14T01:40:08.588Z,503.23
2023-05-14T01:40:19.573Z,503.27
2023-05-14T01:40:30.591Z,503.28
2023-05-14T01:40:41.583Z,503.28
2023-05-14T01:40:52.565Z,503.31
2023-05-14T01:41:03.576Z,503.34
2023-05-14T01:41:14.592Z,503.33
2023-05-14T01:41:25.575Z,503.34
2023-05-14T01:41:37.590Z,503.32
2023-05-14T01:41:48.581Z,503.33
2023-05-14T01:41:59.573Z,503.32
2023-05-14T01:42:10.557Z,503.36
2023-05-14T01:42:21.553Z,503.35
2023-05-14T01:42:32.633Z,503.37
2023-05-14T01:42:44.642Z,503.37
2023-05-14T01:42:56.804Z,503.37
2023-05-14T01:43:08.727Z,503.38
2023-05-14T01:43:19.640Z,503.40
2023-05-14T01:43:31.706Z,503.37
2023-05-14T01:43:42.566Z,503.39
2023-05-14T01:43:53.574Z,503.40
2023-05-14T01:44:04.578Z,503.41
2023-05-14T01:44:15.572Z,503.42
2023-05-14T01:44:26.601Z,503.40
2023-05-14T01:44:38.580Z,503.40
2023-05-14T01:44:49.602Z,503.41
2023-05-14T01:45:01.604Z,503.42
2023-05-14T01:45:13.604Z,503.45
2023-05-14T01:45:25.619Z,503.45
2023-05-14T01:45:37.612Z,503.46
2023-05-14T01:45:49.622Z,503.47
2023-05-14T01:46:01.614Z,503.47
2023-05-14T01:46:13.651Z,503.48
2023-05-14T01:46:24.605Z,503.48
2023-05-14T01:46:35.672Z,503.51
2023-05-14T01:46:46.560Z,503.50
2023-05-14T01:46:57.640Z,503.48
2023-05-14T01:47:09.601Z,503.49
2023-05-14T01:47:20.605Z,503.51
2023-05-14T01:47:32.636Z,503.54
2023-05-14T01:47:44.626Z,503.57
2023-05-14T01:47:56.647Z,503.58
2023-05-14T01:48:07.608Z,503.59
2023-05-14T01:48:18.559Z,503.60
2023-05-14T01:48:29.566Z,503.62
2023-05-14T01:48:40.569Z,503.65
2023-05-14T01:48:51.566Z,503.65
2023-05-14T01:49:02.565Z,503.69
2023-05-14T01:49:13.586Z,503.67
2023-05-14T01:49:24.586Z,503.70
2023-05-14T01:49:35.600Z,503.68
2023-05-14T01:49:47.602Z,503.69
2023-05-14T01:49:59.593Z,503.72
2023-05-14T01:50:10.595Z,503.71
2023-05-14T01:50:22.795Z,503.73
2023-05-14T01:50:33.559Z,503.72
2023-05-14T01:50:44.561Z,503.73
2023-05-14T01:50:55.571Z,503.71
2023-05-14T01:51:06.610Z,503.70
2023-05-14T01:51:17.595Z,503.72
2023-05-14T01:51:29.586Z,503.69
2023-05-14T01:51:40.591Z,503.69
2023-05-14T01:51:51.590Z,503.71
2023-05-14T01:52:02.590Z,503.74
2023-05-14T01:52:13.573Z,503.71
2023-05-14T01:52:24.579Z,503.72
2023-05-14T01:52:35.572Z,503.73
2023-05-14T01:52:46.574Z,503.75
2023-05-14T01:52:57.570Z,503.75
2023-05-14T01:53:08.551Z,503.77
2023-05-14T01:53:19.546Z,503.77
2023-05-14T01:53:30.560Z,503.77
2023-05-14T01:53:41.541Z,503.80
2023-05-14T01:53:52.553Z,503.81
2023-05-14T01:54:03.552Z,503.81
2023-05-14T01:54:14.540Z,503.84
2023-05-14T01:54:25.581Z,503.85
2023-05-14T01:54:36.593Z,503.87
2023-05-14T01:54:47.582Z,503.90
2023-05-14T01:54:58.583Z,503.90
2023-05-14T01:55:09.608Z,503.91
2023-05-14T01:55:20.616Z,503.91
2023-05-14T01:55:32.580Z,503.91
2023-05-14T01:55:43.561Z,503.89
2023-05-14T01:55:54.557Z,503.91
2023-05-14T01:56:05.573Z,503.90
2023-05-14T01:56:16.569Z,503.92
2023-05-14T01:56:27.558Z,503.92
2023-05-14T01:56:38.580Z,503.90
2023-05-14T01:56:49.586Z,503.90
2023-05-14T01:57:00.590Z,503.91
2023-05-14T01:57:11.594Z,503.93
2023-05-14T01:57:22.579Z,503.91
2023-05-14T01:57:33.595Z,503.93
2023-05-14T01:57:45.581Z,503.92
2023-05-14T01:57:56.599Z,503.90
2023-05-14T01:58:07.584Z,503.89
2023-05-14T01:58:18.622Z,503.90
2023-05-14T01:58:30.595Z,503.89
2023-05-14T01:58:41.603Z,503.93
2023-05-14T01:58:52.633Z,503.96
2023-05-14T01:59:04.583Z,503.97
2023-05-14T01:59:15.600Z,504.00
2023-05-14T01:59:27.609Z,504.00
2023-05-14T01:59:39.602Z,504.03
2023-05-14T01:59:51.601Z,504.02
2023-05-14T02:00:03.611Z,504.01
2023-05-14T02:00:15.608Z,503.98
2023-05-14T02:00:26.723Z,503.96
2023-05-14T02:00:38.604Z,503.95
2023-05-14T02:00:49.608Z,503.93
2023-05-14T02:01:01.646Z,503.94
2023-05-14T02:01:13.665Z,503.94
2023-05-14T02:01:25.656Z,503.94
2023-05-14T02:01:37.723Z,503.96
2023-05-14T02:01:49.649Z,503.95
2023-05-14T02:02:00.869Z,503.98
2023-05-14T02:02:11.569Z,503.96
2023-05-14T02:02:22.578Z,503.94
2023-05-14T02:02:33.643Z,503.91
2023-05-14T02:02:44.603Z,503.90
2023-05-14T02:02:55.638Z,503.90
2023-05-14T02:03:07.708Z,503.91
2023-05-14T02:03:19.598Z,503.91
2023-05-14T02:03:30.613Z,503.93
2023-05-14T02:03:41.628Z,503.92
2023-05-14T02:03:53.650Z,503.95
2023-05-14T02:04:04.658Z,503.99
2023-05-14T02:04:15.666Z,504.01
2023-05-14T02:04:26.636Z,504.03
2023-05-14T02:04:37.544Z,504.04
2023-05-14T02:04:48.661Z,504.07
2023-05-14T02:05:00.605Z,504.13
2023-05-14T02:05:12.602Z,504.14
2023-05-14T02:05:23.607Z,504.18
2023-05-14T02:05:34.605Z,504.20
2023-05-14T02:05:45.606Z,504.20
2023-05-14T02:05:57.586Z,504.23
2023-05-14T02:06:08.576Z,504.26
2023-05-14T02:06:19.576Z,504.28
2023-05-14T02:06:30.587Z,504.30
2023-05-14T02:06:41.573Z,504.32
2023-05-14T02:06:52.548Z,504.32
2023-05-14T02:07:03.554Z,504.35
2023-05-14T02:07:14.639Z,504.37
2023-05-14T02:07:26.604Z,504.39
2023-05-14T02:07:38.653Z,504.42
2023-05-14T02:07:50.619Z,504.45
2023-05-14T02:08:02.566Z,504.45
2023-05-14T02:08:13.602Z,504.45
2023-05-14T02:08:25.579Z,504.48
2023-05-14T02:08:36.562Z,504.49
2023-05-14T02:08:47.546Z,504.50
2023-05-14T02:08:58.541Z,504.49
2023-05-14T02:09:09.621Z,504.51
2023-05-14T02:09:21.575Z,504.54
2023-05-14T02:09:32.598Z,504.55
2023-05-14T02:09:43.608Z,504.57
2023-05-14T02:09:55.580Z,504.61
2023-05-14T02:10:06.603Z,504.62
2023-05-14T02:10:17.585Z,504.63
2023-05-14T02:10:28.577Z,504.66
2023-05-14T02:10:39.565Z,504.67
2023-05-14T02:10:50.556Z,504.69
2023-05-14T02:11:01.556Z,504.69
2023-05-14T02:11:12.582Z,504.73
2023-05-14T02:11:23.574Z,504.74
2023-05-14T02:11:34.555Z,504.77
2023-05-14T02:11:45.554Z,504.77
2023-05-14T02:11:56.561Z,504.77
2023-05-14T02:12:07.543Z,504.78
2023-05-14T02:12:18.553Z,504.76
2023-05-14T02:12:29.542Z,504.77
2023-05-14T02:12:40.666Z,504.75
2023-05-14T02:12:52.576Z,504.77
2023-05-14T02:13:03.593Z,504.75
2023-05-14T02:13:14.600Z,504.76
2023-05-14T02:13:26.610Z,504.78
2023-05-14T02:13:37.592Z,504.77
2023-05-14T02:13:49.593Z,504.77
2023-05-14T02:14:00.596Z,504.75
2023-05-14T02:14:12.580Z,504.74
2023-05-14T02:14:23.575Z,504.72
2023-05-14T02:14:34.568Z,504.69
2023-05-14T02:14:45.584Z,504.68
2023-05-14T02:14:56.617Z,504.67
2023-05-14T02:15:07.610Z,504.65
2023-05-14T02:15:19.584Z,504.69
2023-05-14T02:15:30.572Z,504.66
2023-05-14T02:15:41.606Z,504.68
2023-05-14T02:15:53.598Z,504.69
2023-05-14T02:16:05.628Z,504.67
2023-05-14T02:16:17.633Z,504.68
2023-05-14T02:16:29.761Z,504.64
2023-05-14T02:16:40.607Z,504.63
2023-05-14T02:16:52.608Z,504.62
2023-05-14T02:17:03.626Z,504.63
2023-05-14T02:17:15.600Z,504.64
2023-05-14T02:17:26.627Z,504.64
2023-05-14T02:17:38.684Z,504.66
2023-05-14T02:17:50.635Z,504.66
2023-05-14T02:18:01.620Z,504.68
2023-05-14T02:18:12.696Z,504.68
2023-05-14T02:18:24.729Z,504.67
2023-05-14T02:18:35.619Z,504.66
2023-05-14T02:18:47.629Z,504.64
2023-05-14T02:18:59.639Z,504.64
2023-05-14T02:19:11.670Z,504.66
2023-05-14T02:19:23.549Z,504.65
2023-05-14T02:19:34.634Z,504.66
2023-05-14T02:19:46.603Z,504.68
2023-05-14T02:19:57.597Z,504.67
2023-05-14T02:20:09.574Z,504.67
2023-05-14T02:20:20.618Z,504.66
2023-05-14T02:20:32.579Z,504.70
2023-05-14T02:20:43.562Z,504.70